Time;durP1;ratioP1;P1;durP2;ratioP2;P2;SDS_P1;SDS_P2;PMS_P1;PMS_P2;Temp;Humidity;BMP_temperature;BMP_pressure;BME280_temperature;BME280_humidity;BME280_pressure;Samples;Min_cycle;Max_cycle;Signal;HPM_P1;HPM_P2
2022/02/06 00:01:11;;;;;;;0.68;0.20;;;;;;;;;;4180328;28;20126;-33
2022/02/06 00:03:14;;;;;;;0.35;0.20;;;;;;;;;;4180389;28;20049;-33
2022/02/06 00:05:15;;;;;;;0.57;0.20;;;;;;;;;;4179494;28;20060;-33
2022/02/06 00:07:17;;;;;;;0.95;0.30;;;;;;;;;;4180585;28;20053;-33
2022/02/06 00:09:17;;;;;;;0.60;0.28;;;;;;;;;;4180974;28;20119;-33
2022/02/06 00:11:19;;;;;;;1.15;0.40;;;;;;;;;;4180436;28;20078;-33
2022/02/06 00:13:20;;;;;;;0.35;0.20;;;;;;;;;;4180483;28;20045;-33
2022/02/06 00:15:21;;;;;;;0.43;0.20;;;;;;;;;;4180735;28;20110;-33
2022/02/06 00:17:22;;;;;;;0.50;0.20;;;;;;;;;;4179098;28;20053;-33
2022/02/06 00:19:24;;;;;;;0.15;0.10;;;;;;;;;;4180722;28;20056;-33
2022/02/06 00:21:25;;;;;;;0.47;0.20;;;;;;;;;;4180340;28;20106;-33
2022/02/06 00:23:28;;;;;;;0.43;0.30;;;;;;;;;;4180650;28;20062;-33
2022/02/06 00:28:05;;;;;;;0.63;0.38;;;;;;;;;;4180478;28;20401;-33
2022/02/06 00:30:19;;;;;;;0.50;0.30;;;;;;;;;;4179482;28;20084;-32
2022/02/06 00:32:30;;;;;;;0.40;0.20;;;;;;;;;;4180158;28;20114;-33
2022/02/06 00:42:57;;;;;;;0.47;0.10;;;;;;;;;;4179067;28;20056;-33
2022/02/06 00:44:58;;;;;;;0.73;0.20;;;;;;;;;;4180331;28;20508;-33
2022/02/06 00:47:02;;;;;;;0.73;0.20;;;;;;;;;;4180148;28;20049;-33
2022/02/06 00:49:13;;;;;;;0.65;0.20;;;;;;;;;;4180392;28;20087;-33
2022/02/06 00:51:27;;;;;;;0.65;0.28;;;;;;;;;;4180497;28;20053;-33
2022/02/06 00:53:28;;;;;;;0.52;0.10;;;;;;;;;;4180269;28;20489;-33
2022/02/06 00:55:29;;;;;;;0.40;0.20;;;;;;;;;;4180220;28;20061;-33
2022/02/06 00:57:30;;;;;;;0.25;0.20;;;;;;;;;;4180207;28;20390;-33
2022/02/06 00:59:31;;;;;;;0.63;0.32;;;;;;;;;;4180278;28;20065;-33
2022/02/06 01:01:32;;;;;;;0.40;0.35;;;;;;;;;;4179817;28;20053;-33
2022/02/06 01:03:34;;;;;;;2.08;0.20;;;;;;;;;;4180563;28;20057;-33
2022/02/06 01:05:35;;;;;;;0.25;0.20;;;;;;;;;;4179222;28;20065;-33
2022/02/06 01:07:36;;;;;;;0.57;0.20;;;;;;;;;;4180162;28;20451;-33
2022/02/06 01:09:37;;;;;;;0.47;0.28;;;;;;;;;;4180423;28;20061;-33
2022/02/06 01:11:39;;;;;;;0.65;0.30;;;;;;;;;;4180151;28;20060;-33
2022/02/06 01:15:52;;;;;;;0.30;0.17;;;;;;;;;;4182781;28;20451;-33
2022/02/06 01:18:04;;;;;;;0.67;0.27;;;;;;;;;;4183505;28;20107;-33
2022/02/06 01:20:17;;;;;;;0.50;0.20;;;;;;;;;;4183295;28;20775;-33
2022/02/06 01:22:23;;;;;;;0.43;0.30;;;;;;;;;;4183314;28;20102;-33
2022/02/06 01:24:38;;;;;;;0.40;0.13;;;;;;;;;;4182223;28;20057;-33
2022/02/06 01:27:06;;;;;;;0.25;0.20;;;;;;;;;;4182894;28;20396;-33
2022/02/06 01:29:17;;;;;;;0.40;0.17;;;;;;;;;;4181264;28;20413;-33
2022/02/06 01:33:30;;;;;;;0.32;0.20;;;;;;;;;;4183168;28;20110;-33
2022/02/06 01:35:40;;;;;;;0.20;0.20;;;;;;;;;;4183182;28;20057;-33
2022/02/06 01:38:00;;;;;;;0.22;0.20;;;;;;;;;;4183210;28;20111;-33
2022/02/06 01:40:08;;;;;;;0.20;0.20;;;;;;;;;;4182967;28;20061;-33
2022/02/06 01:42:15;;;;;;;0.10;0.10;;;;;;;;;;4183081;28;20056;-33
2022/02/06 01:44:23;;;;;;;0.63;0.20;;;;;;;;;;4182890;28;20099;-33
2022/02/06 02:09:23;;;;;;;0.68;0.20;;;;;;;;;;4182769;28;20068;-33
2022/02/06 02:11:45;;;;;;;0.65;0.20;;;;;;;;;;4181360;28;20060;-33
2022/02/06 02:22:46;;;;;;;0.47;0.20;;;;;;;;;;4180929;28;20535;-33
2022/02/06 02:25:04;;;;;;;0.50;0.15;;;;;;;;;;4182115;28;20056;-33
2022/02/06 02:27:15;;;;;;;0.28;0.20;;;;;;;;;;4174575;28;20057;-33
2022/02/06 02:31:50;;;;;;;0.40;0.20;;;;;;;;;;4164969;28;20068;-33
2022/02/06 02:42:55;;;;;;;0.50;0.13;;;;;;;;;;4164261;28;20050;-33
2022/02/06 02:45:21;;;;;;;0.98;0.30;;;;;;;;;;4165406;28;20061;-33
2022/02/06 02:47:22;;;;;;;0.17;0.13;;;;;;;;;;4164054;28;20485;-33
2022/02/06 02:49:29;;;;;;;0.43;0.22;;;;;;;;;;4180884;28;20461;-33
2022/02/06 02:51:35;;;;;;;0.65;0.22;;;;;;;;;;4181494;28;20114;-33
2022/02/06 02:53:42;;;;;;;0.63;0.25;;;;;;;;;;4180975;28;20486;-33
2022/02/06 02:58:29;;;;;;;0.50;0.20;;;;;;;;;;4158540;28;20057;-33
2022/02/06 03:00:37;;;;;;;0.45;0.20;;;;;;;;;;4163926;28;20065;-33
2022/02/06 03:02:38;;;;;;;0.47;0.13;;;;;;;;;;4179789;28;20118;-33
2022/02/06 03:04:40;;;;;;;0.17;0.17;;;;;;;;;;4181529;28;20044;-33
2022/02/06 03:06:41;;;;;;;0.40;0.20;;;;;;;;;;4181617;28;20052;-33
2022/02/06 03:08:44;;;;;;;0.20;0.10;;;;;;;;;;4181540;28;20489;-33
2022/02/06 03:10:45;;;;;;;0.40;0.13;;;;;;;;;;4181555;28;20103;-33
2022/02/06 03:12:50;;;;;;;0.43;0.30;;;;;;;;;;4180015;28;20095;-33
2022/02/06 03:14:59;;;;;;;0.38;0.15;;;;;;;;;;4181341;28;20048;-33
2022/02/06 03:17:05;;;;;;;2.28;0.28;;;;;;;;;;4181015;28;20053;-33
2022/02/06 03:19:16;;;;;;;0.52;0.20;;;;;;;;;;4181671;28;20114;-33
2022/02/06 03:21:20;;;;;;;0.40;0.28;;;;;;;;;;4181237;28;20105;-33
2022/02/06 03:23:22;;;;;;;0.47;0.20;;;;;;;;;;4181354;28;20053;-33
2022/02/06 03:25:24;;;;;;;1.23;0.20;;;;;;;;;;4181457;28;20115;-33
2022/02/06 03:27:25;;;;;;;0.15;0.15;;;;;;;;;;4181112;28;20106;-33
2022/02/06 03:29:26;;;;;;;0.73;0.30;;;;;;;;;;4181431;28;20056;-33
2022/02/06 03:31:28;;;;;;;0.75;0.20;;;;;;;;;;4179821;28;20140;-33
2022/02/06 03:33:29;;;;;;;0.13;0.10;;;;;;;;;;4181125;28;20095;-33
2022/02/06 03:35:30;;;;;;;0.35;0.10;;;;;;;;;;4181163;28;20083;-33
2022/02/06 03:37:31;;;;;;;0.22;0.10;;;;;;;;;;4180766;28;20057;-33
2022/02/06 03:39:35;;;;;;;0.40;0.20;;;;;;;;;;4180724;28;20060;-33
2022/02/06 03:41:52;;;;;;;0.15;0.10;;;;;;;;;;4180815;28;20061;-33
2022/02/06 03:44:01;;;;;;;0.40;0.20;;;;;;;;;;4181120;28;20052;-33
2022/02/06 03:46:13;;;;;;;1.47;0.30;;;;;;;;;;4179453;28;20060;-33
2022/02/06 03:50:18;;;;;;;0.20;0.10;;;;;;;;;;4181189;28;20061;-33
2022/02/06 03:52:21;;;;;;;0.15;0.10;;;;;;;;;;4180739;28;20052;-33
2022/02/06 03:54:23;;;;;;;0.63;0.20;;;;;;;;;;4181026;28;20045;-33
2022/02/06 03:56:26;;;;;;;0.20;0.20;;;;;;;;;;4179470;28;20063;-33
2022/02/06 03:58:27;;;;;;;0.40;0.10;;;;;;;;;;4180592;28;20065;-33
2022/02/06 04:00:28;;;;;;;0.38;0.20;;;;;;;;;;4180646;28;20052;-33
2022/02/06 04:02:29;;;;;;;0.25;0.10;;;;;;;;;;4179009;28;20049;-33
2022/02/06 04:04:31;;;;;;;0.60;0.20;;;;;;;;;;4180949;28;20106;-33
2022/02/06 04:06:32;;;;;;;1.23;0.20;;;;;;;;;;4180774;28;20052;-33
2022/02/06 04:08:36;;;;;;;0.17;0.10;;;;;;;;;;4180658;28;20182;-33
2022/02/06 04:10:43;;;;;;;0.82;0.30;;;;;;;;;;4180637;28;20053;-33
2022/02/06 04:12:46;;;;;;;1.40;0.40;;;;;;;;;;4180830;28;20131;-33
2022/02/06 04:17:18;;;;;;;0.45;0.22;;;;;;;;;;4180111;28;20554;-33
2022/02/06 04:19:25;;;;;;;0.10;0.10;;;;;;;;;;4179628;28;20447;-33
2022/02/06 04:21:26;;;;;;;0.10;0.10;;;;;;;;;;4168155;28;20080;-33
2022/02/06 04:23:29;;;;;;;0.90;0.30;;;;;;;;;;4178153;28;20049;-33
2022/02/06 04:25:31;;;;;;;0.40;0.20;;;;;;;;;;4180026;28;20057;-33
2022/02/06 04:27:32;;;;;;;0.77;0.20;;;;;;;;;;4180664;28;20061;-33
2022/02/06 04:29:33;;;;;;;0.28;0.10;;;;;;;;;;4179310;28;20485;-33
2022/02/06 04:31:37;;;;;;;1.77;0.30;;;;;;;;;;4180225;28;20110;-33
2022/02/06 04:33:38;;;;;;;0.50;0.30;;;;;;;;;;4180601;28;20060;-33
2022/02/06 04:35:40;;;;;;;0.40;0.20;;;;;;;;;;4180660;28;20053;-33
2022/02/06 04:37:56;;;;;;;0.20;0.17;;;;;;;;;;4179197;28;20130;-33
2022/02/06 04:42:38;;;;;;;0.40;0.15;;;;;;;;;;4180346;28;20061;-33
2022/02/06 04:45:08;;;;;;;0.60;0.20;;;;;;;;;;4180285;28;20390;-33
2022/02/06 04:47:49;;;;;;;0.43;0.30;;;;;;;;;;4179816;28;20568;-33
2022/02/06 05:15:40;;;;;;;0.25;0.13;;;;;;;;;;4183269;28;20102;-33
2022/02/06 05:17:47;;;;;;;0.40;0.20;;;;;;;;;;4181491;28;20408;-33
2022/02/06 05:22:22;;;;;;;0.22;0.10;;;;;;;;;;4183401;28;20057;-33
2022/02/06 05:28:41;;;;;;;0.47;0.20;;;;;;;;;;4183080;28;20060;-33
2022/02/06 05:30:49;;;;;;;0.20;0.10;;;;;;;;;;4183185;28;20102;-33
2022/02/06 05:33:00;;;;;;;0.98;0.22;;;;;;;;;;4183029;28;20193;-33
2022/02/06 05:35:02;;;;;;;0.15;0.10;;;;;;;;;;4182965;28;20507;-33
2022/02/06 05:37:03;;;;;;;0.68;0.10;;;;;;;;;;4182180;28;20512;-33
2022/02/06 05:39:04;;;;;;;0.63;0.20;;;;;;;;;;4178621;28;20056;-33
2022/02/06 05:41:06;;;;;;;0.32;0.20;;;;;;;;;;4182105;28;20095;-33
2022/02/06 05:43:07;;;;;;;0.30;0.10;;;;;;;;;;4181304;28;20071;-33
2022/02/06 05:45:10;;;;;;;0.30;0.20;;;;;;;;;;4182829;28;20061;-33
2022/02/06 05:47:11;;;;;;;0.38;0.13;;;;;;;;;;4181135;28;20079;-33
2022/02/06 05:49:12;;;;;;;0.85;0.13;;;;;;;;;;4183089;28;20056;-32
2022/02/06 05:51:14;;;;;;;0.30;0.20;;;;;;;;;;4181466;28;20057;-33
2022/02/06 05:53:16;;;;;;;0.55;0.20;;;;;;;;;;4181344;28;20064;-33
2022/02/06 05:55:18;;;;;;;0.10;0.10;;;;;;;;;;4181533;28;20489;-33
2022/02/06 05:57:19;;;;;;;0.40;0.10;;;;;;;;;;4182698;28;20052;-33
2022/02/06 05:59:20;;;;;;;0.85;0.30;;;;;;;;;;4164695;28;20115;-33
2022/02/06 06:01:21;;;;;;;0.38;0.10;;;;;;;;;;4181049;28;20061;-33
2022/02/06 06:03:22;;;;;;;0.10;0.10;;;;;;;;;;4182709;28;20053;-33
2022/02/06 06:05:23;;;;;;;0.52;0.20;;;;;;;;;;4182775;28;20068;-33
2022/02/06 06:07:25;;;;;;;0.30;0.20;;;;;;;;;;4182386;28;20394;-33
2022/02/06 06:09:26;;;;;;;0.35;0.17;;;;;;;;;;4182409;28;20052;-33
2022/02/06 06:11:27;;;;;;;0.17;0.10;;;;;;;;;;4182439;28;20061;-33
2022/02/06 06:13:28;;;;;;;0.25;0.10;;;;;;;;;;4164570;28;20049;-33
2022/02/06 06:15:30;;;;;;;0.10;0.10;;;;;;;;;;4181106;28;20057;-33
2022/02/06 06:17:32;;;;;;;0.10;0.10;;;;;;;;;;4180583;28;20057;-33
2022/02/06 06:19:35;;;;;;;0.40;0.20;;;;;;;;;;4182285;28;20059;-33
2022/02/06 06:21:40;;;;;;;0.30;0.10;;;;;;;;;;4182158;28;20413;-33
2022/02/06 06:23:43;;;;;;;0.60;0.20;;;;;;;;;;4182350;28;20053;-33
2022/02/06 06:25:49;;;;;;;0.30;0.20;;;;;;;;;;4182283;28;20061;-33
2022/02/06 06:27:50;;;;;;;0.35;0.28;;;;;;;;;;4182202;28;20086;-33
2022/02/06 06:29:51;;;;;;;0.43;0.15;;;;;;;;;;4182238;28;20053;-33
2022/02/06 06:31:52;;;;;;;0.50;0.30;;;;;;;;;;4180621;28;20057;-33
2022/02/06 06:33:53;;;;;;;0.32;0.20;;;;;;;;;;4181984;28;20098;-33
2022/02/06 06:35:54;;;;;;;0.10;0.10;;;;;;;;;;4181860;28;20554;-33
2022/02/06 06:37:58;;;;;;;0.20;0.20;;;;;;;;;;4181993;28;20126;-33
2022/02/06 06:39:59;;;;;;;0.47;0.13;;;;;;;;;;4182088;28;20057;-33
2022/02/06 06:42:00;;;;;;;0.55;0.20;;;;;;;;;;4181822;28;20107;-33
2022/02/06 06:44:01;;;;;;;0.75;0.20;;;;;;;;;;4180661;28;20339;-33
2022/02/06 06:46:02;;;;;;;0.43;0.10;;;;;;;;;;4181458;28;20118;-33
2022/02/06 06:48:04;;;;;;;0.20;0.10;;;;;;;;;;4182124;28;20111;-33
2022/02/06 06:50:05;;;;;;;0.20;0.10;;;;;;;;;;4181894;28;20061;-33
2022/02/06 06:52:07;;;;;;;0.10;0.10;;;;;;;;;;4181994;28;20052;-33
2022/02/06 06:54:14;;;;;;;0.13;0.10;;;;;;;;;;4180413;28;20057;-33
2022/02/06 06:56:25;;;;;;;0.40;0.20;;;;;;;;;;4181678;28;20064;-33
2022/02/06 06:58:35;;;;;;;0.30;0.20;;;;;;;;;;4181605;28;20045;-33
2022/02/06 07:00:56;;;;;;;0.38;0.17;;;;;;;;;;4181960;28;20065;-33
2022/02/06 07:02:57;;;;;;;0.10;0.10;;;;;;;;;;4181814;28;20408;-33
2022/02/06 07:05:03;;;;;;;0.52;0.20;;;;;;;;;;4181847;28;20060;-33
2022/02/06 07:07:04;;;;;;;0.25;0.20;;;;;;;;;;4181744;28;20057;-33
2022/02/06 07:09:05;;;;;;;0.43;0.25;;;;;;;;;;4181617;28;20073;-34
2022/02/06 07:11:12;;;;;;;0.30;0.20;;;;;;;;;;4180143;28;20489;-33
2022/02/06 07:13:13;;;;;;;0.13;0.10;;;;;;;;;;4181484;28;20099;-33
2022/02/06 07:15:14;;;;;;;0.10;0.10;;;;;;;;;;4181430;28;20056;-33
2022/02/06 07:17:16;;;;;;;0.43;0.10;;;;;;;;;;4179630;28;20118;-33
2022/02/06 07:19:17;;;;;;;0.10;0.10;;;;;;;;;;4181339;28;20056;-33
2022/02/06 07:21:19;;;;;;;0.30;0.30;;;;;;;;;;4179949;28;20057;-33
2022/02/06 07:23:20;;;;;;;0.17;0.17;;;;;;;;;;4181256;28;20115;-33
2022/02/06 07:25:22;;;;;;;0.20;0.20;;;;;;;;;;4181565;28;20049;-33
2022/02/06 07:27:27;;;;;;;0.43;0.22;;;;;;;;;;4181145;28;20363;-33
2022/02/06 07:29:28;;;;;;;0.15;0.10;;;;;;;;;;4181364;28;20049;-33
2022/02/06 07:31:30;;;;;;;0.10;0.10;;;;;;;;;;4180816;28;20048;-33
2022/02/06 07:33:31;;;;;;;0.10;0.10;;;;;;;;;;4181116;28;20057;-33
2022/02/06 07:35:33;;;;;;;0.57;0.20;;;;;;;;;;4181096;28;20110;-33
2022/02/06 07:37:35;;;;;;;0.10;0.10;;;;;;;;;;4180885;28;20430;-33
2022/02/06 07:39:36;;;;;;;0.28;0.13;;;;;;;;;;4180949;28;20060;-33
2022/02/06 07:41:37;;;;;;;0.35;0.20;;;;;;;;;;4181051;28;20053;-33
2022/02/06 07:43:38;;;;;;;0.30;0.17;;;;;;;;;;4179577;28;20098;-33
2022/02/06 07:45:40;;;;;;;0.50;0.10;;;;;;;;;;4181048;28;20056;-33
2022/02/06 07:47:44;;;;;;;0.10;0.10;;;;;;;;;;4180475;28;20053;-33
2022/02/06 07:49:48;;;;;;;0.20;0.10;;;;;;;;;;4181209;28;20060;-33
2022/02/06 07:51:49;;;;;;;0.47;0.20;;;;;;;;;;4180701;28;20065;-34
2022/02/06 07:53:50;;;;;;;0.52;0.30;;;;;;;;;;4181108;28;20049;-33
2022/02/06 07:55:52;;;;;;;0.35;0.10;;;;;;;;;;4180819;28;20163;-33
2022/02/06 07:57:53;;;;;;;0.20;0.10;;;;;;;;;;4179547;28;20052;-33
2022/02/06 07:59:54;;;;;;;0.45;0.17;;;;;;;;;;4179334;28;20127;-33
2022/02/06 08:01:55;;;;;;;0.55;0.20;;;;;;;;;;4180233;28;20160;-33
2022/02/06 08:03:56;;;;;;;0.13;0.08;;;;;;;;;;4180788;28;20083;-33
2022/02/06 08:05:58;;;;;;;0.13;0.10;;;;;;;;;;4180664;28;20327;-33
2022/02/06 08:08:01;;;;;;;0.30;0.20;;;;;;;;;;4180659;28;20053;-33
2022/02/06 08:10:03;;;;;;;0.20;0.10;;;;;;;;;;4180925;28;20053;-33
2022/02/06 08:12:06;;;;;;;0.10;0.10;;;;;;;;;;4180614;28;20087;-33
2022/02/06 08:14:07;;;;;;;0.98;0.20;;;;;;;;;;4180550;28;20053;-33
2022/02/06 08:16:09;;;;;;;0.52;0.20;;;;;;;;;;4180049;28;20052;-33
2022/02/06 08:18:10;;;;;;;0.30;0.10;;;;;;;;;;4180640;28;20049;-33
2022/02/06 08:20:13;;;;;;;0.40;0.30;;;;;;;;;;4162829;28;20408;-33
2022/02/06 08:22:17;;;;;;;0.88;0.10;;;;;;;;;;4180318;28;20331;-33
2022/02/06 08:24:18;;;;;;;0.30;0.10;;;;;;;;;;4180390;28;20053;-33
2022/02/06 08:26:19;;;;;;;0.65;0.20;;;;;;;;;;4179191;28;20052;-33
2022/02/06 08:28:20;;;;;;;0.20;0.20;;;;;;;;;;4180462;28;20409;-33
2022/02/06 08:30:21;;;;;;;0.30;0.20;;;;;;;;;;4180777;28;20056;-33
2022/02/06 08:32:23;;;;;;;0.55;0.22;;;;;;;;;;4179922;28;20157;-33
2022/02/06 08:34:24;;;;;;;0.13;0.10;;;;;;;;;;4180424;28;20098;-33
2022/02/06 08:36:26;;;;;;;0.10;0.10;;;;;;;;;;4180432;28;20087;-33
2022/02/06 08:38:27;;;;;;;0.30;0.10;;;;;;;;;;4180440;28;20390;-33
2022/02/06 08:40:28;;;;;;;0.38;0.15;;;;;;;;;;4162651;28;20058;-33
2022/02/06 08:42:29;;;;;;;0.10;0.10;;;;;;;;;;4179994;28;20061;-33
2022/02/06 08:44:30;;;;;;;0.20;0.10;;;;;;;;;;4180624;28;20052;-33
2022/02/06 08:46:31;;;;;;;0.10;0.10;;;;;;;;;;4179838;28;20386;-33
2022/02/06 08:48:33;;;;;;;0.20;0.10;;;;;;;;;;4180640;28;20052;-33
2022/02/06 08:50:34;;;;;;;0.45;0.17;;;;;;;;;;4180260;28;20119;-33
2022/02/06 08:52:35;;;;;;;0.90;0.20;;;;;;;;;;4180456;28;20061;-33
2022/02/06 08:54:38;;;;;;;0.22;0.10;;;;;;;;;;4180621;28;20098;-33
2022/02/06 08:56:40;;;;;;;0.65;0.20;;;;;;;;;;4180266;28;20107;-33
2022/02/06 08:58:41;;;;;;;0.68;0.10;;;;;;;;;;4180130;28;20394;-33
2022/02/06 09:00:42;;;;;;;0.28;0.10;;;;;;;;;;4180101;28;20488;-33
2022/02/06 09:02:43;;;;;;;0.20;0.20;;;;;;;;;;4179070;28;20099;-33
2022/02/06 09:04:45;;;;;;;0.30;0.20;;;;;;;;;;4180213;28;20087;-33
2022/02/06 09:06:46;;;;;;;0.32;0.20;;;;;;;;;;4180107;28;20053;-38
2022/02/06 09:08:53;;;;;;;0.30;0.17;;;;;;;;;;4180268;28;20057;-33
2022/02/06 09:10:54;;;;;;;0.10;0.10;;;;;;;;;;4180296;28;20094;-33
2022/02/06 09:12:56;;;;;;;0.30;0.20;;;;;;;;;;4180189;28;20064;-33
2022/02/06 09:14:57;;;;;;;0.10;0.10;;;;;;;;;;4180150;28;20065;-33
2022/02/06 09:16:58;;;;;;;0.38;0.22;;;;;;;;;;4179823;28;20063;-33
2022/02/06 09:18:59;;;;;;;0.10;0.10;;;;;;;;;;4180017;28;20102;-33
2022/02/06 09:21:01;;;;;;;0.10;0.10;;;;;;;;;;4179941;28;20493;-33
2022/02/06 09:23:02;;;;;;;1.33;0.32;;;;;;;;;;4180099;28;20052;-33
2022/02/06 09:25:03;;;;;;;0.40;0.30;;;;;;;;;;4180093;28;20331;-33
2022/02/06 09:27:08;;;;;;;0.22;0.20;;;;;;;;;;4180182;28;20049;-34
2022/02/06 09:29:09;;;;;;;0.45;0.15;;;;;;;;;;4180430;28;20499;-33
2022/02/06 09:31:11;;;;;;;0.10;0.10;;;;;;;;;;4178345;28;20056;-33
2022/02/06 09:35:14;;;;;;;0.57;0.20;;;;;;;;;;4179965;28;20053;-33
2022/02/06 09:37:15;;;;;;;0.25;0.10;;;;;;;;;;4182360;28;20056;-33
2022/02/06 09:39:16;;;;;;;1.02;0.20;;;;;;;;;;4182844;28;20061;-33
2022/02/06 09:41:19;;;;;;;0.20;0.10;;;;;;;;;;4182812;28;20386;-33
2022/02/06 09:43:21;;;;;;;0.75;0.30;;;;;;;;;;4182700;28;20492;-33
2022/02/06 09:45:25;;;;;;;0.30;0.10;;;;;;;;;;4182866;28;20057;-33
2022/02/06 09:47:29;;;;;;;0.28;0.20;;;;;;;;;;4182356;28;20049;-33
2022/02/06 09:49:31;;;;;;;1.05;0.30;;;;;;;;;;4166246;28;20054;-33
2022/02/06 09:51:32;;;;;;;0.63;0.25;;;;;;;;;;4166452;28;20053;-33
2022/02/06 09:53:35;;;;;;;0.50;0.10;;;;;;;;;;4166564;28;20057;-33
2022/02/06 09:55:36;;;;;;;0.15;0.15;;;;;;;;;;4166300;28;20064;-33
2022/02/06 09:57:52;;;;;;;0.88;0.20;;;;;;;;;;4164919;28;20088;-33
2022/02/06 09:59:54;;;;;;;0.40;0.20;;;;;;;;;;4165029;28;20049;-33
2022/02/06 10:01:57;;;;;;;0.57;0.10;;;;;;;;;;4165831;28;20111;-33
2022/02/06 10:04:04;;;;;;;0.28;0.28;;;;;;;;;;4165919;28;20077;-33
2022/02/06 10:06:09;;;;;;;0.20;0.20;;;;;;;;;;4164903;28;20057;-33
2022/02/06 10:08:28;;;;;;;0.40;0.20;;;;;;;;;;4165977;28;20060;-33
2022/02/06 10:10:29;;;;;;;0.30;0.20;;;;;;;;;;4165066;28;20057;-34
2022/02/06 10:12:39;;;;;;;0.20;0.20;;;;;;;;;;4165984;28;20064;-33
2022/02/06 10:14:40;;;;;;;0.17;0.13;;;;;;;;;;4165827;28;20509;-33
2022/02/06 10:16:41;;;;;;;0.13;0.10;;;;;;;;;;4165400;28;20335;-33
2022/02/06 10:18:45;;;;;;;0.10;0.10;;;;;;;;;;4164560;28;20148;-33
2022/02/06 10:20:47;;;;;;;0.98;0.35;;;;;;;;;;4165606;28;20065;-33
2022/02/06 10:25:07;;;;;;;0.45;0.20;;;;;;;;;;4166049;28;20053;-33
2022/02/06 10:29:36;;;;;;;0.35;0.17;;;;;;;;;;4165554;28;20057;-33
2022/02/06 10:31:38;;;;;;;0.30;0.15;;;;;;;;;;4164973;28;20064;-33
2022/02/06 10:33:47;;;;;;;0.85;0.20;;;;;;;;;;4165385;28;20046;-33
2022/02/06 10:35:51;;;;;;;0.30;0.20;;;;;;;;;;4165315;28;20061;-33
2022/02/06 10:37:54;;;;;;;0.40;0.20;;;;;;;;;;4165479;28;20410;-33
2022/02/06 10:40:02;;;;;;;0.40;0.20;;;;;;;;;;4164135;28;20115;-33
2022/02/06 10:42:04;;;;;;;0.45;0.15;;;;;;;;;;4165345;28;20061;-33
2022/02/06 10:44:07;;;;;;;1.20;0.30;;;;;;;;;;4165527;28;20065;-33
2022/02/06 10:46:12;;;;;;;1.08;0.20;;;;;;;;;;4164786;28;20057;-33
2022/02/06 10:48:20;;;;;;;0.95;0.30;;;;;;;;;;4163762;28;20061;-33
2022/02/06 10:50:27;;;;;;;0.47;0.20;;;;;;;;;;4165752;28;20064;-33
2022/02/06 10:52:28;;;;;;;1.08;0.32;;;;;;;;;;4164052;28;20544;-33
2022/02/06 10:54:29;;;;;;;0.77;0.30;;;;;;;;;;4165160;28;20167;-32
2022/02/06 10:56:30;;;;;;;1.35;0.22;;;;;;;;;;4165077;28;20413;-33
2022/02/06 10:58:34;;;;;;;0.52;0.20;;;;;;;;;;4163764;28;20111;-33
2022/02/06 11:00:35;;;;;;;0.65;0.22;;;;;;;;;;4165085;28;20061;-33
2022/02/06 11:02:46;;;;;;;0.45;0.20;;;;;;;;;;4163428;28;20068;-33
2022/02/06 11:05:13;;;;;;;0.50;0.20;;;;;;;;;;4164239;28;20052;-33
2022/02/06 11:07:19;;;;;;;0.73;0.20;;;;;;;;;;4165310;28;20111;-33
2022/02/06 11:09:25;;;;;;;1.35;0.30;;;;;;;;;;4165071;28;20057;-33
2022/02/06 11:11:32;;;;;;;0.52;0.30;;;;;;;;;;4164926;28;20485;-33
2022/02/06 11:13:34;;;;;;;0.85;0.20;;;;;;;;;;4164897;28;20054;-33
2022/02/06 11:15:45;;;;;;;2.05;0.35;;;;;;;;;;4165382;28;20060;-33
2022/02/06 11:18:04;;;;;;;1.10;0.40;;;;;;;;;;4164884;28;20152;-33
2022/02/06 11:20:11;;;;;;;1.48;0.30;;;;;;;;;;4164790;28;20100;-33
2022/02/06 11:22:13;;;;;;;1.60;0.20;;;;;;;;;;4163626;28;20061;-33
2022/02/06 11:24:21;;;;;;;0.45;0.20;;;;;;;;;;4164821;28;20093;-33
2022/02/06 11:26:23;;;;;;;0.40;0.30;;;;;;;;;;4164895;28;20107;-33
2022/02/06 11:28:25;;;;;;;0.75;0.30;;;;;;;;;;4164886;28;20406;-33
2022/02/06 11:30:26;;;;;;;0.98;0.30;;;;;;;;;;4164913;28;20065;-33
2022/02/06 11:32:27;;;;;;;2.08;0.50;;;;;;;;;;4164178;28;20049;-33
2022/02/06 11:34:29;;;;;;;0.22;0.15;;;;;;;;;;4163182;28;20115;-33
2022/02/06 11:45:33;;;;;;;1.10;0.47;;;;;;;;;;4164286;28;20164;-33
2022/02/06 11:47:46;;;;;;;0.98;0.20;;;;;;;;;;4163422;28;20057;-33
2022/02/06 11:49:48;;;;;;;0.80;0.10;;;;;;;;;;4181124;28;20052;-32
2022/02/06 11:51:54;;;;;;;0.40;0.20;;;;;;;;;;4179413;28;20405;-33
2022/02/06 11:53:55;;;;;;;0.95;0.20;;;;;;;;;;4180873;28;20065;-33
2022/02/06 11:55:58;;;;;;;0.65;0.20;;;;;;;;;;4180873;28;20061;-33
2022/02/06 11:58:26;;;;;;;0.75;0.20;;;;;;;;;;4180507;28;20485;-33
2022/02/06 12:00:27;;;;;;;1.42;0.45;;;;;;;;;;4179144;28;20107;-33
2022/02/06 12:02:29;;;;;;;0.95;0.20;;;;;;;;;;4180218;28;20382;-33
2022/02/06 12:04:31;;;;;;;1.95;0.65;;;;;;;;;;4179476;28;20410;-33
2022/02/06 12:06:46;;;;;;;0.63;0.20;;;;;;;;;;4180517;28;20101;-33
2022/02/06 12:09:00;;;;;;;0.60;0.32;;;;;;;;;;4180774;28;20057;-33
2022/02/06 12:11:01;;;;;;;0.77;0.30;;;;;;;;;;4180680;28;20068;-33
2022/02/06 12:13:17;;;;;;;0.73;0.28;;;;;;;;;;4180553;28;20105;-33
2022/02/06 12:15:29;;;;;;;0.68;0.20;;;;;;;;;;4180634;28;20382;-33
2022/02/06 12:19:35;;;;;;;0.65;0.20;;;;;;;;;;4180462;28;20061;-33
2022/02/06 12:21:36;;;;;;;0.77;0.38;;;;;;;;;;4180739;28;20065;-33
2022/02/06 12:23:39;;;;;;;0.82;0.40;;;;;;;;;;4180526;28;20508;-33
2022/02/06 12:25:40;;;;;;;0.40;0.20;;;;;;;;;;4179367;28;20081;-33
2022/02/06 12:27:41;;;;;;;1.17;0.50;;;;;;;;;;4180424;28;20533;-33
2022/02/06 12:29:49;;;;;;;1.30;0.38;;;;;;;;;;4180732;28;20053;-32
2022/02/06 12:32:03;;;;;;;0.63;0.22;;;;;;;;;;4178864;28;20061;-33
2022/02/06 12:38:27;;;;;;;0.73;0.20;;;;;;;;;;4180400;28;20550;-33
2022/02/06 12:40:28;;;;;;;0.70;0.40;;;;;;;;;;4180339;28;20048;-33
2022/02/06 12:42:32;;;;;;;1.15;0.13;;;;;;;;;;4180089;28;20052;-33
2022/02/06 12:44:34;;;;;;;1.13;0.30;;;;;;;;;;4180317;28;20475;-33
2022/02/06 12:46:35;;;;;;;1.10;0.30;;;;;;;;;;4179866;28;20812;-33
2022/02/06 12:48:36;;;;;;;0.30;0.20;;;;;;;;;;4179048;28;20057;-33
2022/02/06 12:50:39;;;;;;;0.70;0.40;;;;;;;;;;4180315;28;20111;-33
2022/02/06 12:52:40;;;;;;;0.57;0.28;;;;;;;;;;4179118;28;20049;-33
2022/02/06 12:54:42;;;;;;;3.08;0.40;;;;;;;;;;4180166;28;20378;-33
2022/02/06 12:56:43;;;;;;;1.05;0.40;;;;;;;;;;4180093;28;20550;-33
2022/02/06 12:58:47;;;;;;;0.50;0.30;;;;;;;;;;4180257;28;20065;-33
2022/02/06 13:00:52;;;;;;;0.73;0.20;;;;;;;;;;4179919;28;20056;-33
2022/02/06 13:02:54;;;;;;;0.70;0.30;;;;;;;;;;4178948;28;20052;-33
2022/02/06 13:04:59;;;;;;;0.47;0.22;;;;;;;;;;4179298;28;20183;-33
2022/02/06 13:07:03;;;;;;;1.17;0.60;;;;;;;;;;4178849;28;20488;-33
2022/02/06 13:09:10;;;;;;;1.02;0.30;;;;;;;;;;4180475;28;20087;-33
2022/02/06 13:11:19;;;;;;;0.77;0.30;;;;;;;;;;4182174;28;20386;-33
2022/02/06 13:13:26;;;;;;;0.77;0.22;;;;;;;;;;4183305;28;20075;-33
2022/02/06 13:15:51;;;;;;;0.52;0.22;;;;;;;;;;4183280;28;20385;-33
2022/02/06 13:20:12;;;;;;;1.20;0.40;;;;;;;;;;4183149;28;20065;-32
2022/02/06 13:24:32;;;;;;;0.52;0.20;;;;;;;;;;4183446;28;20052;-33
2022/02/06 13:27:04;;;;;;;1.95;0.35;;;;;;;;;;4183030;28;20452;-32
2022/02/06 13:29:07;;;;;;;0.40;0.20;;;;;;;;;;4182713;28;20466;-33
2022/02/06 13:33:49;;;;;;;0.80;0.30;;;;;;;;;;4183046;28;20114;-33
2022/02/06 13:36:02;;;;;;;0.70;0.40;;;;;;;;;;4182934;28;20103;-33
2022/02/06 13:38:11;;;;;;;1.58;0.22;;;;;;;;;;4181933;28;20102;-33
2022/02/06 13:40:18;;;;;;;0.47;0.20;;;;;;;;;;4183255;28;20057;-33
2022/02/06 13:42:22;;;;;;;0.98;0.40;;;;;;;;;;4182666;28;20060;-33
2022/02/06 13:44:25;;;;;;;1.70;0.40;;;;;;;;;;4183059;28;20053;-33
2022/02/06 13:46:29;;;;;;;1.05;0.30;;;;;;;;;;4182281;28;20107;-33
2022/02/06 13:48:30;;;;;;;1.02;0.20;;;;;;;;;;4182652;28;20443;-33
2022/02/06 13:50:32;;;;;;;0.55;0.30;;;;;;;;;;4181447;28;20087;-33
2022/02/06 13:52:33;;;;;;;1.58;0.40;;;;;;;;;;4182952;28;20053;-33
2022/02/06 13:54:41;;;;;;;0.57;0.30;;;;;;;;;;4181287;28;20090;-33
2022/02/06 13:56:43;;;;;;;0.60;0.30;;;;;;;;;;4182610;28;20057;-33
2022/02/06 13:58:57;;;;;;;0.63;0.20;;;;;;;;;;4181154;28;20068;-33
2022/02/06 14:01:03;;;;;;;0.38;0.17;;;;;;;;;;4182409;28;20099;-33
2022/02/06 14:03:04;;;;;;;0.85;0.30;;;;;;;;;;4182991;28;20052;-33
2022/02/06 14:05:08;;;;;;;1.25;0.30;;;;;;;;;;4182719;28;20049;-33
2022/02/06 14:07:20;;;;;;;0.50;0.20;;;;;;;;;;4182463;28;20125;-33
2022/02/06 14:09:31;;;;;;;1.23;0.35;;;;;;;;;;4165383;28;20057;-33
2022/02/06 14:11:34;;;;;;;1.25;0.40;;;;;;;;;;4182353;28;20061;-33
2022/02/06 14:13:36;;;;;;;0.55;0.17;;;;;;;;;;4182456;28;20064;-33
2022/02/06 14:15:37;;;;;;;0.80;0.30;;;;;;;;;;4182260;28;20049;-33
2022/02/06 14:17:38;;;;;;;0.35;0.30;;;;;;;;;;4180841;28;20107;-33
2022/02/06 14:19:44;;;;;;;0.50;0.20;;;;;;;;;;4182175;28;20065;-33
2022/02/06 14:21:48;;;;;;;0.65;0.25;;;;;;;;;;4180287;28;20410;-33
2022/02/06 14:24:03;;;;;;;0.60;0.28;;;;;;;;;;4164514;28;20057;-33
2022/02/06 14:26:15;;;;;;;1.02;0.30;;;;;;;;;;4180912;28;20107;-33
2022/02/06 14:28:20;;;;;;;0.65;0.20;;;;;;;;;;4182696;28;20091;-33
2022/02/06 14:30:25;;;;;;;1.35;0.32;;;;;;;;;;4182289;28;20198;-33
2022/02/06 14:32:26;;;;;;;0.95;0.30;;;;;;;;;;4181800;28;20118;-33
2022/02/06 14:34:27;;;;;;;0.40;0.13;;;;;;;;;;4182187;28;20094;-32
2022/02/06 14:36:28;;;;;;;0.90;0.20;;;;;;;;;;4181814;28;20481;-33